createdAt,value
2022-09-28T00:00:34.358Z,99666.97
2022-09-28T00:03:00.878Z,99663.50
2022-09-28T00:05:27.372Z,99666.19
2022-09-28T00:07:54.392Z,99664.25
2022-09-28T00:10:24.085Z,99667.94
2022-09-28T00:12:51.423Z,99659.28
2022-09-28T00:15:18.226Z,99665.22
2022-09-28T00:17:44.942Z,99668.69
2022-09-28T00:20:12.126Z,99662.97
2022-09-28T00:22:39.127Z,99665.97
2022-09-28T00:25:06.955Z,99658.75
2022-09-28T00:27:33.417Z,99666.16
2022-09-28T00:30:00.109Z,99661.47
2022-09-28T00:32:26.880Z,99660.00
2022-09-28T00:34:53.365Z,99654.31
2022-09-28T00:37:19.975Z,99646.44
2022-09-28T00:39:48.604Z,99647.66
2022-09-28T00:42:16.356Z,99646.16
2022-09-28T00:44:48.760Z,99648.88
2022-09-28T00:47:19.754Z,99646.16
2022-09-28T00:50:18.105Z,99642.44
2022-09-28T00:52:50.318Z,99637.00
2022-09-28T00:55:21.863Z,99636.75
2022-09-28T00:57:55.206Z,99632.81
2022-09-28T01:00:22.008Z,99630.56
2022-09-28T01:02:49.075Z,99629.81
2022-09-28T01:05:17.898Z,99635.22
2022-09-28T01:07:46.385Z,99630.09
2022-09-28T01:10:14.181Z,99623.19
2022-09-28T01:12:40.580Z,99624.38
2022-09-28T01:15:07.398Z,99619.72
2022-09-28T01:17:48.824Z,99624.38
2022-09-28T01:20:32.931Z,99627.88
2022-09-28T01:23:34.855Z,99633.03
2022-09-28T01:26:31.715Z,99619.94
2022-09-28T01:29:11.746Z,99619.47
2022-09-28T01:31:41.846Z,99621.44
2022-09-28T01:34:18.025Z,99621.16
2022-09-28T01:36:51.037Z,99618.44
2022-09-28T01:39:26.099Z,99620.88
2022-09-28T01:41:55.867Z,99618.19
2022-09-28T01:44:25.848Z,99615.72
2022-09-28T01:46:53.357Z,99616.97
2022-09-28T01:49:23.133Z,99613.50
2022-09-28T01:52:01.477Z,99617.44
2022-09-28T01:55:15.504Z,99607.06
2022-09-28T01:57:50.443Z,99606.59
2022-09-28T02:00:19.079Z,99608.56
2022-09-28T02:02:53.891Z,99611.03
2022-09-28T02:05:43.120Z,99612.47
2022-09-28T02:08:17.525Z,99613.97
2022-09-28T02:10:52.125Z,99606.31
2022-09-28T02:13:24.894Z,99605.59
2022-09-28T02:16:01.359Z,99612.47
2022-09-28T02:18:27.863Z,99610.25
2022-09-28T02:21:27.045Z,99608.75
2022-09-28T02:24:02.141Z,99606.06
2022-09-28T02:26:33.225Z,99601.84
2022-09-28T02:28:59.727Z,99608.75
2022-09-28T02:31:27.977Z,99603.06
2022-09-28T02:33:56.861Z,99602.81
2022-09-28T02:36:25.749Z,99600.84
2022-09-28T02:38:53.048Z,99606.53
2022-09-28T02:41:43.315Z,99598.91
2022-09-28T02:44:15.799Z,99598.13
2022-09-28T02:46:51.991Z,99600.34
2022-09-28T02:49:24.146Z,99595.88
2022-09-28T02:51:58.393Z,99592.44
2022-09-28T02:54:48.068Z,99589.25
2022-09-28T02:57:42.252Z,99593.91
2022-09-28T03:00:17.494Z,99593.19
2022-09-28T03:02:49.812Z,99592.69
2022-09-28T03:05:31.710Z,99598.34
2022-09-28T03:08:06.868Z,99596.38
2022-09-28T03:10:44.047Z,99596.38
2022-09-28T03:13:12.036Z,99597.63
2022-09-28T03:15:38.493Z,99586.75
2022-09-28T03:18:04.915Z,99588.69
2022-09-28T03:20:33.471Z,99588.97
2022-09-28T03:23:23.213Z,99587.50
2022-09-28T03:25:47.239Z,99592.94
2022-09-28T03:28:13.614Z,99586.00
2022-09-28T03:30:40.089Z,99574.41
2022-09-28T03:33:07.004Z,99586.00
2022-09-28T03:35:33.448Z,99586.00
2022-09-28T03:37:59.867Z,99591.41
2022-09-28T03:40:26.356Z,99580.31
2022-09-28T03:42:53.974Z,99581.56
2022-09-28T03:45:20.363Z,99592.41
2022-09-28T03:47:47.278Z,99587.69
2022-09-28T03:50:14.362Z,99572.66
2022-09-28T03:52:40.766Z,99583.00
2022-09-28T03:55:07.543Z,99581.56
2022-09-28T03:57:33.996Z,99583.75
2022-09-28T04:00:00.577Z,99571.16
2022-09-28T04:02:27.124Z,99572.91
2022-09-28T04:04:53.542Z,99566.00
2022-09-28T04:07:19.968Z,99569.97
2022-09-28T04:09:46.345Z,99563.78
2022-09-28T04:12:12.794Z,99573.88
2022-09-28T04:14:39.196Z,99568.00
2022-09-28T04:17:06.582Z,99573.13
2022-09-28T04:19:33.409Z,99581.25
2022-09-28T04:22:01.440Z,99580.06
2022-09-28T04:24:28.036Z,99581.25
2022-09-28T04:27:14.416Z,99577.81
2022-09-28T04:29:43.923Z,99582.47
2022-09-28T04:32:11.638Z,99574.34
2022-09-28T04:34:41.951Z,99577.06
2022-09-28T04:37:10.505Z,99581.00
2022-09-28T04:39:36.929Z,99582.47
2022-09-28T04:42:03.470Z,99583.47
2022-09-28T04:44:29.962Z,99588.41
2022-09-28T04:46:56.400Z,99582.97
2022-09-28T04:49:24.432Z,99590.38
2022-09-28T04:51:50.863Z,99587.38
2022-09-28T04:54:17.426Z,99580.75
2022-09-28T04:56:43.964Z,99593.09
2022-09-28T04:59:10.467Z,99589.63
2022-09-28T05:01:37.057Z,99586.16
2022-09-28T05:04:03.645Z,99580.75
2022-09-28T05:06:30.752Z,99590.81
2022-09-28T05:08:57.648Z,99581.19
2022-09-28T05:11:24.208Z,99589.31
2022-09-28T05:13:50.687Z,99584.66
2022-09-28T05:16:17.590Z,99582.69
2022-09-28T05:18:44.095Z,99577.25
2022-09-28T05:21:12.788Z,99588.59
2022-09-28T05:23:40.398Z,99576.75
2022-09-28T05:26:07.428Z,99579.00
2022-09-28T05:28:34.118Z,99585.63
2022-09-28T05:31:01.924Z,99583.16
2022-09-28T05:33:28.916Z,99576.28
2022-09-28T05:36:00.310Z,99589.09
2022-09-28T05:38:28.369Z,99581.69
2022-09-28T05:40:54.879Z,99583.16
2022-09-28T05:43:21.539Z,99584.41
2022-09-28T05:45:52.835Z,99586.38
2022-09-28T05:48:21.649Z,99583.16
2022-09-28T05:50:52.408Z,99583.66
2022-09-28T05:53:19.077Z,99581.41
2022-09-28T05:55:45.785Z,99580.66
2022-09-28T05:58:12.190Z,99580.94
2022-09-28T06:00:38.689Z,99582.91
2022-09-28T06:03:09.097Z,99586.38
2022-09-28T06:05:36.875Z,99575.97
2022-09-28T06:08:05.241Z,99582.16
2022-09-28T06:10:32.867Z,99577.94
2022-09-28T06:12:59.926Z,99582.63
2022-09-28T06:15:28.789Z,99577.69
2022-09-28T06:17:57.093Z,99579.66
2022-09-28T06:20:24.108Z,99588.03
2022-09-28T06:22:52.822Z,99580.88
2022-09-28T06:25:19.963Z,99580.41
2022-09-28T06:28:00.514Z,99589.28
2022-09-28T06:30:28.398Z,99584.63
2022-09-28T06:32:56.416Z,99580.88
2022-09-28T06:35:25.349Z,99595.94
2022-09-28T06:37:52.611Z,99592.94
2022-09-28T06:40:20.441Z,99590.22
2022-09-28T06:43:15.328Z,99597.16
2022-09-28T06:45:43.171Z,99599.88
2022-09-28T06:48:11.046Z,99597.16
2022-09-28T06:50:40.526Z,99604.06
2022-09-28T06:53:09.487Z,99602.34
2022-09-28T06:55:40.072Z,99597.22
2022-09-28T06:58:10.721Z,99595.50
2022-09-28T07:00:39.111Z,99605.66
2022-09-28T07:03:11.073Z,99601.75
2022-09-28T07:05:44.406Z,99601.50
2022-09-28T07:08:12.039Z,99611.94
2022-09-28T07:10:46.501Z,99609.22
2022-09-28T07:13:40.053Z,99617.44
2022-09-28T07:16:01.759Z,99620.44
2022-09-28T07:18:29.916Z,99621.44
2022-09-28T07:20:59.862Z,99621.66
2022-09-28T07:23:29.567Z,99625.16
2022-09-28T07:25:58.078Z,99624.38
2022-09-28T07:28:25.043Z,99620.00
2022-09-28T07:30:51.500Z,99629.63
2022-09-28T07:33:18.170Z,99628.38
2022-09-28T07:35:55.459Z,99632.59
2022-09-28T07:38:21.861Z,99637.28
2022-09-28T07:41:06.826Z,99642.22
2022-09-28T07:43:33.413Z,99640.75
2022-09-28T07:45:59.938Z,99642.72
2022-09-28T07:48:26.383Z,99641.94
2022-09-28T07:50:55.329Z,99643.44
2022-09-28T07:53:23.647Z,99631.84
2022-09-28T07:56:07.363Z,99638.28
2022-09-28T07:58:35.856Z,99636.50
2022-09-28T08:01:10.509Z,99646.63
2022-09-28T08:03:38.772Z,99644.66
2022-09-28T08:06:09.773Z,99643.91
2022-09-28T08:08:37.044Z,99652.78
2022-09-28T08:11:06.548Z,99652.78
2022-09-28T08:13:32.991Z,99656.47
2022-09-28T08:16:03.317Z,99642.91
2022-09-28T08:18:30.654Z,99655.25
2022-09-28T08:21:16.100Z,99653.78
2022-09-28T08:23:42.599Z,99650.31
2022-09-28T08:26:13.293Z,99651.50
2022-09-28T08:28:43.174Z,99648.78
2022-09-28T08:31:09.810Z,99650.78
2022-09-28T08:33:36.512Z,99648.34
2022-09-28T08:36:04.558Z,99651.50
2022-09-28T08:38:32.235Z,99652.75
2022-09-28T08:41:13.709Z,99654.50
2022-09-28T08:44:00.596Z,99661.44
2022-09-28T08:46:39.810Z,99657.97
2022-09-28T08:49:25.061Z,99658.44
2022-09-28T08:51:54.813Z,99662.66
2022-09-28T08:54:36.692Z,99663.41
2022-09-28T08:57:10.473Z,99660.19
2022-09-28T08:59:58.652Z,99656.00
2022-09-28T09:02:33.924Z,99665.59
2022-09-28T09:05:06.173Z,99664.41
2022-09-28T09:07:42.312Z,99663.63
2022-09-28T09:10:47.261Z,99663.63
2022-09-28T09:13:45.814Z,99667.13
2022-09-28T09:16:18.504Z,99660.94
2022-09-28T09:19:06.674Z,99665.91
2022-09-28T09:21:41.718Z,99661.22
2022-09-28T09:24:47.899Z,99665.16
2022-09-28T09:27:36.748Z,99671.59
2022-09-28T09:30:12.829Z,99674.59
2022-09-28T09:33:24.753Z,99672.63
2022-09-28T09:36:23.466Z,99674.31
2022-09-28T09:39:04.612Z,99677.03
2022-09-28T09:41:42.969Z,99677.75
2022-09-28T09:44:30.549Z,99677.03
2022-09-28T09:47:08.023Z,99671.59
2022-09-28T09:49:47.128Z,99678.03
2022-09-28T09:52:46.595Z,99683.25
2022-09-28T09:55:29.740Z,99675.38
2022-09-28T09:58:16.181Z,99686.03
2022-09-28T10:00:47.411Z,99680.84
2022-09-28T10:03:35.113Z,99690.03
2022-09-28T10:06:25.190Z,99679.41
2022-09-28T10:09:04.333Z,99683.16
2022-09-28T10:11:39.694Z,99679.19
2022-09-28T10:14:08.214Z,99681.44
2022-09-28T10:16:35.706Z,99680.47
2022-09-28T10:19:02.616Z,99681.00
2022-09-28T10:21:30.179Z,99688.69
2022-09-28T10:24:02.648Z,99688.91
2022-09-28T10:26:39.955Z,99687.25
2022-09-28T10:29:17.868Z,99694.66
2022-09-28T10:31:49.194Z,99686.75
2022-09-28T10:34:18.902Z,99684.75
2022-09-28T10:37:06.689Z,99683.56
2022-09-28T10:39:53.457Z,99690.50
2022-09-28T10:42:31.750Z,99688.25
2022-09-28T10:45:13.812Z,99688.72
2022-09-28T10:47:44.396Z,99688.00
2022-09-28T10:50:26.374Z,99687.25
2022-09-28T10:52:53.002Z,99684.75
2022-09-28T10:55:32.448Z,99681.59
2022-09-28T10:58:00.069Z,99689.75
2022-09-28T11:00:34.617Z,99688.53
2022-09-28T11:03:02.059Z,99689.00
2022-09-28T11:05:30.088Z,99689.25
2022-09-28T11:07:59.784Z,99692.69
2022-09-28T11:10:32.702Z,99691.78
2022-09-28T11:13:00.019Z,99689.28
2022-09-28T11:15:29.755Z,99697.72
2022-09-28T11:17:56.460Z,99694.28
2022-09-28T11:20:28.174Z,99688.84
2022-09-28T11:22:56.285Z,99691.03
2022-09-28T11:25:25.538Z,99699.19
2022-09-28T11:27:51.944Z,99690.34
2022-09-28T11:30:31.138Z,99695.75
2022-09-28T11:33:09.981Z,99687.84
2022-09-28T11:35:52.694Z,99694.78
2022-09-28T11:38:34.103Z,99692.06
2022-09-28T11:41:17.459Z,99696.28
2022-09-28T11:44:12.987Z,99693.28
2022-09-28T11:47:17.300Z,99697.03
2022-09-28T11:49:49.555Z,99703.94
2022-09-28T11:52:32.962Z,99714.56
2022-09-28T11:55:13.411Z,99700.28
2022-09-28T11:57:45.006Z,99703.72
2022-09-28T12:00:19.432Z,99712.88
2022-09-28T12:02:51.946Z,99698.81
2022-09-28T12:05:34.748Z,99703.03
2022-09-28T12:08:29.498Z,99712.66
2022-09-28T12:11:17.158Z,99706.47
2022-09-28T12:13:48.501Z,99711.91
2022-09-28T12:19:40.082Z,99717.34
2022-09-28T12:22:17.486Z,99714.41
2022-09-28T12:24:50.852Z,99715.59
2022-09-28T12:27:50.852Z,99714.09
2022-09-28T12:30:22.568Z,99720.00
2022-09-28T12:33:05.667Z,99720.75
2022-09-28T12:35:50.687Z,99717.78
2022-09-28T12:38:29.245Z,99720.97
2022-09-28T12:41:23.310Z,99718.47
2022-09-28T12:43:56.064Z,99716.72
2022-09-28T12:46:38.930Z,99727.31
2022-09-28T12:52:28.989Z,99722.38
2022-09-28T12:55:17.445Z,99725.28
2022-09-28T12:58:15.107Z,99729.25
2022-09-28T13:01:19.721Z,99724.28
2022-09-28T13:03:57.523Z,99729.94
2022-09-28T13:06:30.093Z,99731.91
2022-09-28T13:09:17.213Z,99726.91
2022-09-28T13:12:16.115Z,99728.91
2022-09-28T13:15:27.836Z,99726.91
2022-09-28T13:18:06.224Z,99727.97
2022-09-28T13:20:57.947Z,99735.84
2022-09-28T13:23:29.546Z,99729.63
2022-09-28T13:26:33.672Z,99731.63
2022-09-28T13:29:04.929Z,99733.13
2022-09-28T13:31:34.975Z,99727.69
2022-09-28T13:34:05.051Z,99727.22
2022-09-28T13:36:31.445Z,99729.44
2022-09-28T13:39:00.357Z,99730.16
2022-09-28T13:41:29.102Z,99731.41
2022-09-28T13:44:05.184Z,99738.31
2022-09-28T13:46:53.314Z,99740.31
2022-09-28T13:49:26.800Z,99734.88
2022-09-28T13:52:02.391Z,99736.34
2022-09-28T13:55:08.039Z,99736.34
2022-09-28T13:57:59.522Z,99734.88
2022-09-28T14:00:28.251Z,99737.13
2022-09-28T14:03:20.658Z,99739.56
2022-09-28T14:05:52.145Z,99742.28
2022-09-28T14:09:08.125Z,99741.25
2022-09-28T14:11:34.862Z,99743.22
2022-09-28T14:14:14.322Z,99743.22
2022-09-28T14:16:44.637Z,99748.41
2022-09-28T14:19:31.615Z,99741.47
2022-09-28T14:22:00.799Z,99742.97
2022-09-28T14:24:34.565Z,99743.44
2022-09-28T14:27:28.285Z,99749.34
2022-09-28T14:30:11.267Z,99745.41
2022-09-28T14:32:40.619Z,99751.31
2022-09-28T14:35:18.889Z,99749.34
2022-09-28T14:38:07.300Z,99757.22
2022-09-28T14:41:10.014Z,99753.00
2022-09-28T14:43:45.443Z,99755.72
2022-09-28T14:46:12.249Z,99760.41
2022-09-28T14:48:47.976Z,99756.69
2022-09-28T14:51:26.869Z,99765.13
2022-09-28T14:53:55.318Z,99765.56
2022-09-28T14:56:22.317Z,99761.63
2022-09-28T14:58:54.815Z,99762.59
2022-09-28T15:01:24.718Z,99763.34
2022-09-28T15:04:01.812Z,99764.06
2022-09-28T15:06:44.594Z,99767.53
2022-09-28T15:09:31.830Z,99772.72
2022-09-28T15:12:01.968Z,99760.63
2022-09-28T15:14:44.265Z,99761.56
2022-09-28T15:17:12.703Z,99763.53
2022-09-28T15:20:10.944Z,99766.75
2022-09-28T15:22:44.490Z,99764.03
2022-09-28T15:25:16.754Z,99764.50
2022-09-28T15:27:43.379Z,99761.50
2022-09-28T15:30:18.935Z,99765.47
2022-09-28T15:32:45.369Z,99760.03
2022-09-28T15:35:22.156Z,99766.38
2022-09-28T15:37:51.963Z,99771.34
2022-09-28T15:40:32.477Z,99777.53
2022-09-28T15:42:59.890Z,99764.41
2022-09-28T15:45:36.661Z,99777.25
2022-09-28T15:48:20.552Z,99785.13
2022-09-28T15:50:59.957Z,99782.66
2022-09-28T15:53:26.987Z,99787.09
2022-09-28T15:56:03.522Z,99787.09
2022-09-28T15:58:30.058Z,99788.28
2022-09-28T16:01:21.212Z,99784.84
2022-09-28T16:03:47.848Z,99790.25
2022-09-28T16:06:14.370Z,99794.03
2022-09-28T16:08:43.575Z,99792.53
2022-09-28T16:11:24.251Z,99797.22
2022-09-28T16:14:05.916Z,99806.84
2022-09-28T16:16:55.353Z,99804.56
2022-09-28T16:19:30.694Z,99803.81
2022-09-28T16:22:03.625Z,99805.78
2022-09-28T16:24:33.027Z,99804.56
2022-09-28T16:27:02.726Z,99801.84
2022-09-28T16:29:39.875Z,99800.38
2022-09-28T16:32:25.122Z,99806.53
2022-09-28T16:35:07.382Z,99806.28
2022-09-28T16:37:36.338Z,99810.97
2022-09-28T16:40:04.274Z,99816.84
2022-09-28T16:42:30.753Z,99814.91
2022-09-28T16:44:57.309Z,99823.03
2022-09-28T16:47:23.934Z,99821.53
2022-09-28T16:49:51.534Z,99820.06
2022-09-28T16:52:37.953Z,99814.13
2022-09-28T16:55:38.875Z,99822.78
2022-09-28T16:58:04.759Z,99815.38
2022-09-28T17:00:31.846Z,99815.09
2022-09-28T17:02:58.532Z,99818.25
2022-09-28T17:05:25.468Z,99824.47
2022-09-28T17:08:02.846Z,99825.66
2022-09-28T17:10:50.069Z,99828.38
2022-09-28T17:13:36.046Z,99820.22
2022-09-28T17:16:11.227Z,99826.91
2022-09-28T17:18:40.029Z,99831.59
2022-09-28T17:21:13.404Z,99832.31
2022-09-28T17:23:39.910Z,99831.59
2022-09-28T17:26:06.433Z,99840.47
2022-09-28T17:28:35.315Z,99828.38
2022-09-28T17:31:04.794Z,99843.19
2022-09-28T17:33:31.543Z,99843.94
2022-09-28T17:36:01.145Z,99841.22
2022-09-28T17:38:28.135Z,99852.06
2022-09-28T17:40:54.723Z,99846.63
2022-09-28T17:43:22.227Z,99850.06
2022-09-28T17:45:49.425Z,99857.75
2022-09-28T17:48:23.323Z,99860.00
2022-09-28T17:50:50.686Z,99855.81
2022-09-28T17:53:17.286Z,99854.03
2022-09-28T17:55:43.746Z,99851.31
2022-09-28T17:58:13.155Z,99858.22
2022-09-28T18:00:40.269Z,99867.88
2022-09-28T18:03:13.295Z,99866.84
2022-09-28T18:05:39.947Z,99869.81
2022-09-28T18:08:06.392Z,99869.06
2022-09-28T18:10:32.945Z,99859.72
2022-09-28T18:12:59.413Z,99863.38
2022-09-28T18:15:25.959Z,99858.94
2022-09-28T18:17:52.412Z,99867.59
2022-09-28T18:20:19.129Z,99862.16
2022-09-28T18:22:45.639Z,99862.16
2022-09-28T18:25:12.124Z,99871.78
2022-09-28T18:27:38.825Z,99877.19
2022-09-28T18:30:06.463Z,99872.28
2022-09-28T18:32:36.955Z,99882.63
2022-09-28T18:35:08.681Z,99880.41
2022-09-28T18:37:36.635Z,99881.16
2022-09-28T18:40:03.680Z,99879.19
2022-09-28T18:42:30.117Z,99893.47
2022-09-28T18:44:56.548Z,99889.28
2022-09-28T18:47:23.707Z,99889.75
2022-09-28T18:49:51.100Z,99890.03
2022-09-28T18:52:17.736Z,99891.72
2022-09-28T18:54:46.792Z,99897.16
2022-09-28T18:57:13.219Z,99895.94
2022-09-28T18:59:39.749Z,99900.63
2022-09-28T19:02:06.830Z,99904.81
2022-09-28T19:04:33.322Z,99908.75
2022-09-28T19:06:59.903Z,99909.50
2022-09-28T19:09:26.659Z,99911.47
2022-09-28T19:11:53.132Z,99914.63
2022-09-28T19:14:19.822Z,99920.06
2022-09-28T19:16:46.462Z,99917.34
2022-09-28T19:19:15.724Z,99922.03
2022-09-28T19:21:43.401Z,99922.75
2022-09-28T19:24:14.073Z,99923.25
2022-09-28T19:26:40.911Z,99928.97
2022-09-28T19:29:07.412Z,99924.00
2022-09-28T19:31:33.835Z,99924.00
2022-09-28T19:34:00.260Z,99924.75
2022-09-28T19:36:28.504Z,99925.97
2022-09-28T19:38:57.166Z,99921.75
2022-09-28T19:41:51.046Z,99923.25
2022-09-28T19:44:27.173Z,99931.41
2022-09-28T19:47:00.702Z,99936.06
2022-09-28T19:49:28.187Z,99944.97
2022-09-28T19:52:14.277Z,99941.50
2022-09-28T19:54:56.444Z,99943.94
2022-09-28T19:57:27.996Z,99953.28
2022-09-28T19:59:59.316Z,99949.06
2022-09-28T20:02:28.695Z,99941.69
2022-09-28T20:04:55.409Z,99941.41
2022-09-28T20:07:21.810Z,99950.75
2022-09-28T20:09:48.232Z,99951.03
2022-09-28T20:12:14.741Z,99956.47
2022-09-28T20:14:41.176Z,99956.94
2022-09-28T20:17:08.057Z,99955.72
2022-09-28T20:19:35.294Z,99969.28
2022-09-28T20:22:02.964Z,99958.44
2022-09-28T20:24:30.994Z,99965.06
2022-09-28T20:26:58.062Z,99965.06
2022-09-28T20:29:24.628Z,99971.25
2022-09-28T20:31:51.783Z,99965.34
2022-09-28T20:34:18.352Z,99967.78
2022-09-28T20:36:44.786Z,99975.47
2022-09-28T20:39:12.153Z,99976.47
2022-09-28T20:41:38.675Z,99975.47
2022-09-28T20:44:06.380Z,99977.69
2022-09-28T20:46:34.805Z,99976.47
2022-09-28T20:49:01.722Z,99976.94
2022-09-28T20:51:28.222Z,99976.94
2022-09-28T20:53:56.618Z,99969.28
2022-09-28T20:56:24.577Z,99983.59
2022-09-28T20:58:51.720Z,99978.91
2022-09-28T21:01:23.702Z,99988.28
2022-09-28T21:03:55.480Z,99985.09
2022-09-28T21:06:24.678Z,99987.81
2022-09-28T21:08:51.601Z,99984.34
2022-09-28T21:11:20.681Z,99987.81
2022-09-28T21:13:47.394Z,99997.16
2022-09-28T21:16:15.605Z,99997.63
2022-09-28T21:18:42.178Z,99999.88
2022-09-28T21:21:12.038Z,99990.97
2022-09-28T21:23:39.216Z,99996.16
2022-09-28T21:26:07.027Z,99998.88
2022-09-28T21:28:33.591Z,99998.38
2022-09-28T21:31:00.699Z,99995.38
2022-09-28T21:33:27.403Z,100000.06
2022-09-28T21:35:53.888Z,99993.88
2022-09-28T21:38:20.306Z,99996.59
2022-09-28T21:40:47.021Z,99997.81
2022-09-28T21:43:13.583Z,100007.72
2022-09-28T21:45:40.022Z,100003.53
2022-09-28T21:48:06.474Z,100004.72
2022-09-28T21:50:33.253Z,100004.72
2022-09-28T21:53:00.235Z,100005.47
2022-09-28T21:55:26.675Z,100010.16
2022-09-28T21:57:53.125Z,100010.16
2022-09-28T22:00:23.189Z,100018.28
2022-09-28T22:02:50.346Z,100011.38
2022-09-28T22:05:17.016Z,100016.78
2022-09-28T22:07:43.463Z,100015.28
2022-09-28T22:10:14.635Z,100019.50
2022-09-28T22:12:41.516Z,100014.84
2022-09-28T22:15:08.701Z,100018.00
2022-09-28T22:17:35.082Z,100014.59
2022-09-28T22:20:01.733Z,100009.88
2022-09-28T22:22:29.322Z,100011.88
2022-09-28T22:24:56.198Z,100015.28
2022-09-28T22:27:23.977Z,100012.31
2022-09-28T22:29:51.123Z,100009.88
2022-09-28T22:32:17.609Z,100020.72
2022-09-28T22:34:44.033Z,100022.72
2022-09-28T22:37:10.486Z,100018.19
2022-09-28T22:39:37.945Z,100024.38
2022-09-28T22:42:04.666Z,100025.13
2022-09-28T22:44:31.104Z,100027.84
2022-09-28T22:46:58.081Z,100022.41
2022-09-28T22:49:24.507Z,100016.22
2022-09-28T22:51:51.000Z,100021.66
2022-09-28T22:54:17.612Z,100031.28
2022-09-28T22:56:44.181Z,100029.53
2022-09-28T22:59:11.645Z,100025.59
2022-09-28T23:01:38.313Z,100034.00
2022-09-28T23:04:04.825Z,100032.50
2022-09-28T23:06:31.370Z,100027.56
2022-09-28T23:08:58.068Z,100033.72
2022-09-28T23:11:24.577Z,100032.25
2022-09-28T23:13:52.780Z,100030.53
2022-09-28T23:16:20.103Z,100032.03
2022-09-28T23:18:46.851Z,100034.97
2022-09-28T23:21:16.090Z,100032.25
2022-09-28T23:23:47.056Z,100031.75
2022-09-28T23:26:19.442Z,100034.97
2022-09-28T23:28:46.084Z,100033.00
2022-09-28T23:31:15.744Z,100036.16
2022-09-28T23:33:42.307Z,100035.41
2022-09-28T23:36:09.149Z,100031.94
2022-09-28T23:38:35.690Z,100032.41
2022-09-28T23:41:02.358Z,100038.56
2022-09-28T23:43:28.928Z,100043.25
2022-09-28T23:45:55.753Z,100033.91
2022-09-28T23:48:22.206Z,100039.06
2022-09-28T23:50:48.670Z,100040.53
2022-09-28T23:53:15.333Z,100042.78
2022-09-28T23:55:42.745Z,100041.78
2022-09-28T23:58:09.947Z,100045.50
